createdAt,value
2018-05-03T00:00:52.543Z,0.00
2018-05-03T00:01:53.283Z,0.00
2018-05-03T00:02:53.710Z,0.00
2018-05-03T00:03:55.721Z,0.00
2018-05-03T00:04:53.703Z,0.00
2018-05-03T00:05:53.703Z,0.00
2018-05-03T00:06:53.300Z,0.00
2018-05-03T00:07:54.203Z,0.00
2018-05-03T00:08:54.205Z,0.00
2018-05-03T00:09:54.210Z,0.00
2018-05-03T00:10:54.725Z,0.00
2018-05-03T00:11:54.703Z,0.00
2018-05-03T00:12:54.705Z,0.00
2018-05-03T00:13:54.710Z,0.00
2018-05-03T00:14:55.204Z,0.00
2018-05-03T00:15:57.203Z,0.00
2018-05-03T00:16:54.548Z,0.00
2018-05-03T00:17:55.203Z,0.00
2018-05-03T00:20:26.951Z,0.00
2018-05-03T00:21:26.956Z,0.00
2018-05-03T00:22:26.958Z,0.00
2018-05-03T00:23:48.456Z,0.00
2018-05-03T00:24:27.463Z,0.00
2018-05-03T00:25:27.459Z,0.00
2018-05-03T00:26:27.461Z,0.00
2018-05-03T00:27:27.955Z,0.00
2018-05-03T00:29:58.653Z,0.00
2018-05-03T00:30:59.342Z,0.00
2018-05-03T00:31:59.353Z,0.00
2018-05-03T00:32:59.843Z,0.00
2018-05-03T00:33:59.843Z,0.00
2018-05-03T00:35:20.841Z,0.00
2018-05-03T00:35:59.318Z,0.00
2018-05-03T00:37:00.343Z,0.00
2018-05-03T00:38:00.346Z,0.00
2018-05-03T00:39:00.341Z,0.00
2018-05-03T00:40:00.341Z,0.00
2018-05-03T00:41:27.842Z,0.00
2018-05-03T00:42:00.852Z,0.00
2018-05-03T00:43:00.846Z,0.00
2018-05-03T00:44:00.852Z,0.00
2018-05-03T00:45:01.341Z,0.00
2018-05-03T00:46:01.338Z,0.00
2018-05-03T00:47:01.341Z,0.00
2018-05-03T00:48:01.339Z,0.00
2018-05-03T00:49:03.273Z,0.00
2018-05-03T00:50:01.841Z,0.00
2018-05-03T00:51:28.842Z,0.00
2018-05-03T00:52:01.856Z,0.00
2018-05-03T00:54:33.607Z,0.00
2018-05-03T00:55:33.616Z,0.00
2018-05-03T00:56:33.615Z,0.00
2018-05-03T00:57:34.143Z,0.00
2018-05-03T00:58:34.114Z,0.00
2018-05-03T00:59:34.114Z,0.00
2018-05-03T01:00:34.166Z,0.00
2018-05-03T01:01:34.616Z,0.00
2018-05-03T01:02:55.611Z,0.00
2018-05-03T01:05:07.999Z,0.00
2018-05-03T01:06:06.006Z,0.00
2018-05-03T01:07:06.006Z,0.00
2018-05-03T01:08:06.505Z,0.00
2018-05-03T01:09:06.505Z,0.00
2018-05-03T01:10:06.512Z,0.00
2018-05-03T01:11:06.007Z,0.00
2018-05-03T01:12:07.005Z,0.00
2018-05-03T01:13:07.010Z,0.00
2018-05-03T01:14:07.040Z,0.00
2018-05-03T01:15:07.005Z,0.00
2018-05-03T01:17:52.782Z,0.00
2018-05-03T01:18:38.797Z,0.00
2018-05-03T01:19:38.801Z,0.00
2018-05-03T01:20:59.368Z,0.00
2018-05-03T01:23:09.908Z,0.00
2018-05-03T01:24:10.653Z,0.00
2018-05-03T01:25:10.653Z,0.00
2018-05-03T01:27:42.421Z,0.00
2018-05-03T01:28:41.768Z,0.00
2018-05-03T01:29:42.419Z,0.00
2018-05-03T01:30:42.916Z,0.00
2018-05-03T01:32:03.909Z,0.00
2018-05-03T01:34:14.455Z,0.00
2018-05-03T01:35:14.462Z,0.00
2018-05-03T01:36:14.462Z,0.00
2018-05-03T01:38:48.656Z,0.00
2018-05-03T01:39:48.222Z,0.00
2018-05-03T01:40:47.658Z,0.00
2018-05-03T01:42:07.733Z,0.00
2018-05-03T01:43:06.812Z,0.00
2018-05-03T01:43:46.724Z,0.00
2018-05-03T01:45:07.722Z,0.00
2018-05-03T01:45:46.724Z,0.00
2018-05-03T01:48:18.482Z,0.00
2018-05-03T01:49:18.487Z,0.00
2018-05-03T01:50:18.487Z,0.00
2018-05-03T01:52:50.237Z,0.00
2018-05-03T01:53:50.242Z,0.00
2018-05-03T01:54:50.253Z,0.00
2018-05-03T01:56:11.739Z,0.00
2018-05-03T01:56:50.739Z,0.00
2018-05-03T01:57:50.743Z,0.00
2018-05-03T01:58:50.751Z,0.00
2018-05-03T01:59:51.201Z,0.00
2018-05-03T02:00:57.239Z,0.00
2018-05-03T02:01:51.239Z,0.00
2018-05-03T02:03:11.565Z,0.00
2018-05-03T02:03:51.238Z,0.00
2018-05-03T02:04:51.736Z,0.00
2018-05-03T02:05:51.739Z,0.00
2018-05-03T02:06:53.202Z,0.00
2018-05-03T02:10:55.068Z,0.00
2018-05-03T02:12:16.078Z,0.00
2018-05-03T02:12:54.553Z,0.00
2018-05-03T02:15:27.310Z,0.00
2018-05-03T02:16:27.322Z,0.00
2018-05-03T02:17:27.319Z,0.00
2018-05-03T02:19:59.571Z,0.00
2018-05-03T02:20:59.578Z,0.00
2018-05-03T02:21:59.577Z,0.00
2018-05-03T02:27:34.718Z,0.00
2018-05-03T02:28:34.721Z,0.00
2018-05-03T02:29:36.723Z,0.00
2018-05-03T02:30:34.733Z,0.00
2018-05-03T02:31:35.223Z,0.00
2018-05-03T02:32:35.224Z,0.00
2018-05-03T02:33:35.234Z,0.00
2018-05-03T02:34:36.167Z,0.00
2018-05-03T02:35:41.730Z,0.00
2018-05-03T02:36:35.722Z,0.00
2018-05-03T02:37:35.723Z,0.00
2018-05-03T02:38:35.719Z,0.00
2018-05-03T02:39:35.731Z,0.00
2018-05-03T02:40:59.224Z,0.00
2018-05-03T02:41:58.221Z,0.00
2018-05-03T02:42:36.253Z,0.00
2018-05-03T02:43:38.155Z,0.00
2018-05-03T02:44:43.655Z,0.00
2018-05-03T02:45:36.722Z,0.00
2018-05-03T02:46:36.722Z,0.00
2018-05-03T02:47:36.195Z,0.00
2018-05-03T02:55:04.051Z,0.00
2018-05-03T02:55:44.517Z,0.00
2018-05-03T02:56:43.057Z,0.00
2018-05-03T02:58:04.058Z,0.00
2018-05-03T02:58:45.559Z,0.00
2018-05-03T02:59:42.775Z,0.00
2018-05-03T03:00:43.558Z,0.00
2018-05-03T03:03:15.245Z,0.00
2018-05-03T03:04:36.313Z,0.00
2018-05-03T03:06:47.597Z,0.00
2018-05-03T03:07:47.659Z,0.00
2018-05-03T03:08:47.588Z,0.00
2018-05-03T03:09:47.588Z,0.00
2018-05-03T03:12:19.343Z,0.00
2018-05-03T03:13:18.835Z,0.00
2018-05-03T03:14:19.855Z,0.00
2018-05-03T03:15:20.803Z,0.00
2018-05-03T03:16:19.872Z,0.00
2018-05-03T03:17:19.849Z,0.00
2018-05-03T03:18:19.850Z,0.00
2018-05-03T03:19:20.349Z,0.00
2018-05-03T03:20:20.349Z,0.00
2018-05-03T03:21:20.350Z,0.00
2018-05-03T03:22:20.356Z,0.00
2018-05-03T03:24:52.104Z,0.00
2018-05-03T03:25:52.110Z,0.00
2018-05-03T03:26:52.111Z,4.00
2018-05-03T03:27:52.617Z,4.00
2018-05-03T03:28:52.618Z,0.00
2018-05-03T03:29:52.609Z,4.00
2018-05-03T03:30:52.105Z,4.00
2018-05-03T03:31:53.109Z,4.00
2018-05-03T03:32:53.108Z,4.00
2018-05-03T03:34:14.113Z,8.00
2018-05-03T03:34:53.108Z,8.00
2018-05-03T03:35:52.713Z,8.00
2018-05-03T03:38:31.487Z,12.00
2018-05-03T03:39:26.971Z,12.00
2018-05-03T03:40:25.490Z,16.00
2018-05-03T03:41:25.990Z,16.00
2018-05-03T03:42:26.011Z,16.00
2018-05-03T03:43:26.000Z,20.00
2018-05-03T03:44:46.997Z,24.00
2018-05-03T03:48:29.172Z,28.00
2018-05-03T03:49:29.179Z,36.00
2018-05-03T03:50:51.610Z,36.00
2018-05-03T03:51:29.678Z,32.00
2018-05-03T03:52:29.688Z,36.00
2018-05-03T03:53:29.681Z,36.00
2018-05-03T03:54:29.680Z,36.00
2018-05-03T03:55:32.178Z,36.00
2018-05-03T03:56:31.616Z,36.00
2018-05-03T03:57:29.485Z,40.00
2018-05-03T03:58:33.618Z,40.00
2018-05-03T03:59:36.183Z,44.00
2018-05-03T04:02:01.935Z,52.00
2018-05-03T04:03:01.938Z,60.00
2018-05-03T04:04:01.984Z,60.00
2018-05-03T04:05:01.479Z,64.00
2018-05-03T04:07:33.754Z,76.00
2018-05-03T04:08:34.715Z,80.00
2018-05-03T04:09:33.206Z,84.00
2018-05-03T04:10:55.242Z,96.00
2018-05-03T04:11:55.242Z,104.00
2018-05-03T04:12:34.242Z,104.00
2018-05-03T04:13:34.271Z,112.00
2018-05-03T04:14:33.737Z,116.00
2018-05-03T04:18:58.471Z,152.00
2018-05-03T04:19:37.407Z,164.00
2018-05-03T04:20:37.470Z,176.00
2018-05-03T04:21:36.962Z,196.00
2018-05-03T04:22:58.967Z,220.00
2018-05-03T04:23:38.965Z,248.00
2018-05-03T04:24:58.966Z,268.00
2018-05-03T04:25:37.991Z,292.00
2018-05-03T04:26:59.467Z,308.00
2018-05-03T04:28:00.465Z,320.00
2018-05-03T04:28:59.467Z,332.00
2018-05-03T04:29:40.443Z,348.00
2018-05-03T04:30:40.425Z,364.00
2018-05-03T04:32:00.964Z,372.00
2018-05-03T04:33:04.480Z,384.00
2018-05-03T04:33:59.965Z,392.00
2018-05-03T04:34:39.044Z,392.00
2018-05-03T04:35:41.463Z,392.00
2018-05-03T04:36:39.466Z,384.00
2018-05-03T04:38:00.466Z,380.00
2018-05-03T04:38:41.898Z,380.00
2018-05-03T04:41:32.214Z,404.00
2018-05-03T04:42:11.221Z,420.00
2018-05-03T04:43:11.255Z,440.00
2018-05-03T04:44:11.724Z,460.00
2018-05-03T04:48:14.527Z,540.00
2018-05-03T04:49:14.529Z,560.00
2018-05-03T04:50:14.521Z,584.00
2018-05-03T04:51:38.001Z,600.00
2018-05-03T04:52:17.019Z,620.00
2018-05-03T04:53:15.028Z,644.00
2018-05-03T04:54:15.073Z,676.00
2018-05-03T04:55:42.523Z,716.00
2018-05-03T04:57:46.903Z,824.00
2018-05-03T04:58:46.897Z,864.00
2018-05-03T04:59:46.388Z,904.00
2018-05-03T05:00:49.398Z,936.00
2018-05-03T05:01:49.398Z,968.00
2018-05-03T05:02:47.397Z,1004.00
2018-05-03T05:03:46.868Z,1036.00
2018-05-03T05:04:47.980Z,1064.00
2018-05-03T05:05:47.898Z,1092.00
2018-05-03T05:06:47.240Z,1116.00
2018-05-03T05:07:47.336Z,1132.00
2018-05-03T05:08:48.397Z,1132.00
2018-05-03T05:11:20.177Z,1148.00
2018-05-03T05:12:20.188Z,1152.00
2018-05-03T05:13:20.190Z,1148.00
2018-05-03T05:14:21.624Z,1136.00
2018-05-03T05:15:20.684Z,1128.00
2018-05-03T05:16:41.710Z,1120.00
2018-05-03T05:17:20.684Z,1100.00
2018-05-03T05:18:41.684Z,1084.00
2018-05-03T05:19:22.116Z,1068.00
2018-05-03T05:20:21.186Z,1052.00
2018-05-03T05:21:23.662Z,1036.00
2018-05-03T05:22:21.184Z,1016.00
2018-05-03T05:23:48.683Z,1004.00
2018-05-03T05:24:35.688Z,992.00
2018-05-03T05:25:21.686Z,1000.00
2018-05-03T05:26:21.683Z,1012.00
2018-05-03T05:27:36.184Z,1032.00
2018-05-03T05:28:21.408Z,1060.00
2018-05-03T05:29:22.184Z,1096.00
2018-05-03T05:30:22.189Z,1124.00
2018-05-03T05:31:49.684Z,1160.00
2018-05-03T05:32:22.683Z,1188.00
2018-05-03T05:33:22.687Z,1216.00
2018-05-03T05:34:22.686Z,1240.00
2018-05-03T05:35:44.183Z,1268.00
2018-05-03T05:36:23.183Z,1284.00
2018-05-03T05:37:45.190Z,1296.00
2018-05-03T05:38:44.196Z,1300.00
2018-05-03T05:40:54.929Z,1232.00
2018-05-03T05:43:26.429Z,1228.00
2018-05-03T05:44:26.450Z,1252.00
2018-05-03T05:45:27.900Z,1292.00
2018-05-03T05:48:19.159Z,1384.00
2018-05-03T05:52:01.125Z,1652.00
2018-05-03T05:53:01.129Z,1740.00
2018-05-03T05:54:22.127Z,1800.00
2018-05-03T05:55:01.627Z,1860.00
2018-05-03T05:56:01.632Z,1916.00
2018-05-03T05:57:01.625Z,1956.00
2018-05-03T05:58:01.634Z,1968.00
2018-05-03T06:02:06.276Z,2024.00
2018-05-03T06:03:25.844Z,2016.00
2018-05-03T06:04:04.844Z,2032.00
2018-05-03T06:06:36.602Z,2208.00
2018-05-03T06:07:35.950Z,2232.00
2018-05-03T06:10:08.206Z,2364.00
2018-05-03T06:11:07.560Z,2372.00
2018-05-03T06:12:08.218Z,2364.00
2018-05-03T06:14:39.978Z,2416.00
2018-05-03T06:15:41.985Z,2408.00
2018-05-03T06:16:39.991Z,2428.00
2018-05-03T06:17:42.492Z,2424.00
2018-05-03T06:19:03.492Z,2412.00
2018-05-03T06:19:40.486Z,2344.00
2018-05-03T06:20:40.487Z,2236.00
2018-05-03T06:23:33.277Z,2060.00
2018-05-03T06:24:12.277Z,1960.00
2018-05-03T06:25:13.705Z,1912.00
2018-05-03T06:28:07.038Z,1840.00
2018-05-03T06:30:15.531Z,1820.00
2018-05-03T06:31:15.545Z,1828.00
2018-05-03T06:32:17.471Z,1844.00
2018-05-03T06:34:47.428Z,1992.00
2018-05-03T06:35:47.467Z,2012.00
2018-05-03T06:36:47.933Z,2060.00
2018-05-03T06:37:47.933Z,2084.00
2018-05-03T06:38:47.951Z,2068.00
2018-05-03T06:39:47.940Z,2084.00
2018-05-03T06:40:47.933Z,2380.00
2018-05-03T06:41:48.434Z,2252.00
2018-05-03T06:42:47.695Z,2388.00
2018-05-03T06:43:48.434Z,2360.00
2018-05-03T06:44:48.432Z,2328.00
2018-05-03T06:47:20.192Z,2316.00
2018-05-03T06:48:20.195Z,2404.00
2018-05-03T06:49:20.198Z,2416.00
2018-05-03T06:50:35.697Z,2524.00
2018-05-03T06:51:41.699Z,2664.00
2018-05-03T06:52:41.702Z,2776.00
2018-05-03T06:53:20.704Z,2836.00
2018-05-03T06:54:41.301Z,2888.00
2018-05-03T06:55:42.199Z,2916.00
2018-05-03T06:56:21.229Z,2932.00
2018-05-03T06:57:21.199Z,2968.00
2018-05-03T06:58:45.631Z,2992.00
2018-05-03T06:59:27.707Z,2980.00
2018-05-03T07:00:21.717Z,2940.00
2018-05-03T07:01:21.699Z,2892.00
2018-05-03T07:02:21.301Z,2904.00
2018-05-03T07:03:22.202Z,2936.00
2018-05-03T07:04:28.301Z,2972.00
2018-05-03T07:05:36.198Z,2944.00
2018-05-03T07:06:43.696Z,2872.00
2018-05-03T07:07:22.713Z,2744.00
2018-05-03T07:08:43.760Z,2588.00
2018-05-03T07:09:22.703Z,2500.00
2018-05-03T07:10:37.203Z,2512.00
2018-05-03T07:11:44.198Z,2308.00
2018-05-03T07:12:23.199Z,2420.00
2018-05-03T07:13:44.202Z,2620.00
2018-05-03T07:14:22.800Z,2764.00
2018-05-03T07:15:22.901Z,2584.00
2018-05-03T07:16:25.648Z,2336.00
2018-05-03T07:17:23.700Z,2904.00
2018-05-03T07:18:23.698Z,2924.00
2018-05-03T07:19:45.200Z,2976.00
2018-05-03T07:20:24.201Z,2636.00
2018-05-03T07:21:24.297Z,3236.00
2018-05-03T07:22:24.202Z,3348.00
2018-05-03T07:23:51.756Z,2900.00
2018-05-03T07:24:24.713Z,2808.00
2018-05-03T07:25:45.033Z,2852.00
2018-05-03T07:26:24.763Z,3204.00
2018-05-03T07:27:25.207Z,2724.00
2018-05-03T07:28:24.319Z,2672.00
2018-05-03T07:31:10.590Z,2724.00
2018-05-03T07:32:16.925Z,2948.00
2018-05-03T07:32:56.602Z,3528.00
2018-05-03T07:33:56.604Z,3096.00
2018-05-03T07:34:56.307Z,3352.00
2018-05-03T07:35:57.099Z,3056.00
2018-05-03T07:37:18.098Z,3092.00
2018-05-03T07:38:11.097Z,3032.00
2018-05-03T07:38:56.701Z,2760.00
2018-05-03T07:41:28.276Z,2928.00
2018-05-03T07:42:30.960Z,2848.00
2018-05-03T07:45:00.587Z,2980.00
2018-05-03T07:46:00.596Z,2988.00
2018-05-03T07:47:00.072Z,2856.00
2018-05-03T07:48:01.096Z,2832.00
2018-05-03T07:50:33.945Z,2888.00
2018-05-03T07:51:53.480Z,2788.00
2018-05-03T07:52:32.081Z,2736.00
2018-05-03T07:55:09.773Z,2816.00
2018-05-03T07:56:04.843Z,2756.00
2018-05-03T07:57:06.300Z,2528.00
2018-05-03T07:58:26.341Z,2416.00
2018-05-03T07:59:26.343Z,2528.00
2018-05-03T08:01:59.722Z,2940.00
2018-05-03T08:02:36.724Z,3036.00
2018-05-03T08:03:51.220Z,3344.00
2018-05-03T08:04:36.446Z,3288.00
2018-05-03T08:07:29.719Z,3108.00
2018-05-03T08:08:08.720Z,3512.00
2018-05-03T08:09:22.746Z,3856.00
2018-05-03T08:10:08.316Z,3928.00
2018-05-03T08:11:08.407Z,4124.00
2018-05-03T08:12:09.215Z,4332.00
2018-05-03T08:13:08.572Z,4492.00
2018-05-03T08:14:09.219Z,4524.00
2018-05-03T08:16:55.497Z,4548.00
2018-05-03T08:17:41.476Z,4444.00
2018-05-03T08:18:42.474Z,4388.00
2018-05-03T08:20:02.976Z,4476.00
2018-05-03T08:21:02.190Z,4828.00
2018-05-03T08:21:47.974Z,5020.00
2018-05-03T08:22:41.973Z,5128.00
2018-05-03T08:23:44.490Z,5216.00
2018-05-03T08:24:45.408Z,5344.00
2018-05-03T08:25:41.848Z,5412.00
2018-05-03T08:26:56.483Z,5508.00
2018-05-03T08:28:04.942Z,5532.00
2018-05-03T08:28:43.981Z,5672.00
2018-05-03T08:29:42.333Z,5704.00
2018-05-03T08:30:42.977Z,5784.00
2018-05-03T08:34:45.493Z,6440.00
2018-05-03T08:35:49.683Z,6440.00
2018-05-03T08:36:46.213Z,6468.00
2018-05-03T08:40:49.420Z,6616.00
2018-05-03T08:42:09.877Z,6652.00
2018-05-03T08:43:03.929Z,6728.00
2018-05-03T08:44:10.929Z,6968.00
2018-05-03T08:45:10.929Z,7328.00
2018-05-03T08:45:51.933Z,7560.00
2018-05-03T08:46:56.935Z,7868.00
2018-05-03T08:47:50.432Z,8044.00
2018-05-03T08:49:11.427Z,8204.00
2018-05-03T08:49:50.429Z,8868.00
2018-05-03T08:50:52.436Z,8420.00
2018-05-03T08:51:50.929Z,8624.00
2018-05-03T08:52:56.927Z,9160.00
2018-05-03T08:55:22.438Z,9600.00
2018-05-03T08:56:43.443Z,9712.00
2018-05-03T08:57:22.065Z,9924.00
2018-05-03T08:58:43.947Z,9252.00
2018-05-03T09:01:15.481Z,8360.00
2018-05-03T09:02:10.901Z,8308.00
2018-05-03T09:03:15.481Z,8284.00
2018-05-03T09:03:54.967Z,8288.00
2018-05-03T09:06:26.350Z,8416.00
2018-05-03T09:07:27.839Z,8380.00
2018-05-03T09:08:26.355Z,8552.00
2018-05-03T09:09:47.855Z,8768.00
2018-05-03T09:10:26.090Z,8744.00
2018-05-03T09:11:26.855Z,8908.00
2018-05-03T09:12:26.856Z,9280.00
2018-05-03T09:15:19.638Z,8996.00
2018-05-03T09:15:58.645Z,9020.00
2018-05-03T09:17:19.670Z,9104.00
2018-05-03T09:18:22.145Z,9228.00
2018-05-03T09:19:13.144Z,9220.00
2018-05-03T09:19:59.152Z,9140.00
2018-05-03T09:20:59.144Z,9104.00
2018-05-03T09:23:51.915Z,9164.00
2018-05-03T09:24:30.927Z,9172.00
2018-05-03T09:25:51.925Z,9136.00
2018-05-03T09:26:32.853Z,9012.00
2018-05-03T09:27:30.645Z,8952.00
2018-05-03T09:28:32.431Z,9048.00
2018-05-03T09:29:31.420Z,9088.00
2018-05-03T09:30:52.034Z,9096.00
2018-05-03T09:31:31.145Z,9116.00
2018-05-03T09:34:03.407Z,9360.00
2018-05-03T09:35:02.883Z,9408.00
2018-05-03T09:36:05.906Z,9408.00
2018-05-03T09:37:04.910Z,9364.00
2018-05-03T09:38:26.375Z,9400.00
2018-05-03T09:39:24.344Z,9424.00
2018-05-03T09:41:34.904Z,9448.00
2018-05-03T09:42:36.609Z,9612.00
2018-05-03T09:43:35.612Z,9804.00
2018-05-03T09:44:36.112Z,9916.00
2018-05-03T09:45:36.112Z,10088.00
2018-05-03T09:46:36.111Z,10400.00
2018-05-03T09:47:36.111Z,10908.00
2018-05-03T09:50:33.310Z,11372.00
2018-05-03T09:51:07.875Z,11416.00
2018-05-03T09:52:07.877Z,11576.00
2018-05-03T09:53:08.377Z,11804.00
2018-05-03T09:55:39.773Z,11492.00
2018-05-03T09:57:00.780Z,11048.00
2018-05-03T09:57:39.778Z,10804.00
2018-05-03T10:00:32.581Z,9840.00
2018-05-03T10:01:11.577Z,9324.00
2018-05-03T10:02:11.577Z,9080.00
2018-05-03T10:04:44.779Z,9600.00
2018-05-03T10:05:49.341Z,9512.00
2018-05-03T10:06:43.345Z,9528.00
2018-05-03T10:10:46.538Z,9356.00
2018-05-03T10:11:46.546Z,8320.00
2018-05-03T10:12:46.561Z,7696.00
2018-05-03T10:13:46.147Z,7592.00
2018-05-03T10:14:47.050Z,7764.00
2018-05-03T10:17:17.914Z,8704.00
2018-05-03T10:18:18.593Z,8440.00
2018-05-03T10:19:21.024Z,8580.00
2018-05-03T10:20:20.554Z,8728.00
2018-05-03T10:21:39.283Z,8772.00
2018-05-03T10:23:50.558Z,7876.00
2018-05-03T10:24:50.582Z,6676.00
2018-05-03T10:25:51.059Z,5016.00
2018-05-03T10:27:05.060Z,3924.00
2018-05-03T10:27:51.072Z,3460.00
2018-05-03T10:28:51.061Z,3396.00
2018-05-03T10:30:15.589Z,3552.00
2018-05-03T10:30:52.559Z,4048.00
2018-05-03T10:31:51.561Z,4856.00
2018-05-03T10:32:51.079Z,5272.00
2018-05-03T10:34:06.063Z,5852.00
2018-05-03T10:36:23.451Z,8044.00
2018-05-03T10:37:23.473Z,8348.00
2018-05-03T10:38:22.954Z,8912.00
2018-05-03T10:40:55.211Z,9392.00
2018-05-03T10:41:55.278Z,9484.00
2018-05-03T10:42:55.216Z,8992.00
2018-05-03T10:46:58.455Z,4220.00
2018-05-03T10:47:58.469Z,4432.00
2018-05-03T10:48:59.015Z,4164.00
2018-05-03T10:49:58.951Z,4344.00
2018-05-03T10:51:00.956Z,4828.00
2018-05-03T10:51:58.955Z,4940.00
2018-05-03T10:53:01.466Z,5636.00
2018-05-03T10:54:01.452Z,6428.00
2018-05-03T10:55:00.670Z,8012.00
2018-05-03T10:55:59.452Z,9112.00
2018-05-03T10:58:52.235Z,12376.00
2018-05-03T10:59:31.382Z,12784.00
2018-05-03T11:01:00.335Z,13096.00
2018-05-03T11:03:23.323Z,12572.00
2018-05-03T11:04:04.451Z,11480.00
2018-05-03T11:06:34.657Z,10780.00
2018-05-03T11:07:40.684Z,9672.00
2018-05-03T11:11:02.860Z,10152.00
2018-05-03T11:12:02.458Z,9984.00
2018-05-03T11:13:02.556Z,10404.00
2018-05-03T11:14:03.347Z,10752.00
2018-05-03T11:16:35.028Z,12020.00
2018-05-03T11:17:34.977Z,12416.00
2018-05-03T11:18:35.480Z,13012.00
2018-05-03T11:21:27.301Z,14488.00
2018-05-03T11:22:06.873Z,15136.00
2018-05-03T11:23:27.870Z,16064.00
2018-05-03T11:25:59.666Z,15156.00
2018-05-03T11:26:39.642Z,12284.00
2018-05-03T11:27:38.643Z,11184.00
2018-05-03T11:30:12.436Z,10128.00
2018-05-03T11:31:31.513Z,9232.00
2018-05-03T11:32:10.443Z,8628.00
2018-05-03T11:33:31.949Z,8692.00
2018-05-03T11:34:32.119Z,12408.00
2018-05-03T11:35:31.217Z,66624.00
2018-05-03T11:36:31.362Z,70752.00
2018-05-03T11:37:25.441Z,74112.00
2018-05-03T11:38:32.484Z,76032.00
2018-05-03T11:40:42.238Z,10560.00
2018-05-03T11:42:04.886Z,61184.00
2018-05-03T11:42:42.534Z,13656.00
2018-05-03T11:44:03.562Z,67072.00
2018-05-03T11:44:43.422Z,44832.00
2018-05-03T11:45:43.402Z,17728.00
2018-05-03T11:46:43.382Z,8448.00
2018-05-03T11:47:42.988Z,7116.00
2018-05-03T11:49:04.888Z,6864.00
2018-05-03T11:50:04.882Z,6988.00
2018-05-03T11:50:43.882Z,9816.00
2018-05-03T11:51:43.488Z,36864.00
2018-05-03T11:54:15.770Z,29984.00
2018-05-03T11:55:15.778Z,19360.00
2018-05-03T11:56:15.776Z,20960.00
2018-05-03T11:57:31.733Z,33408.00
2018-05-03T11:58:22.271Z,27488.00
2018-05-03T11:59:15.677Z,45024.00
2018-05-03T12:00:23.275Z,29472.00
2018-05-03T12:01:43.770Z,19328.00
2018-05-03T12:02:16.002Z,21344.00
2018-05-03T12:03:16.773Z,94368.00
2018-05-03T12:04:16.771Z,89664.00
2018-05-03T12:05:20.268Z,84928.00
2018-05-03T12:06:18.735Z,81280.00
2018-05-03T12:07:18.740Z,80864.00
2018-05-03T12:08:18.273Z,86848.00
2018-05-03T12:09:16.870Z,87840.00
2018-05-03T12:10:17.770Z,82304.00
2018-05-03T12:11:17.779Z,76800.00
2018-05-03T12:12:38.789Z,78784.00
2018-05-03T12:13:17.388Z,17096.00
2018-05-03T12:14:17.499Z,13088.00
2018-05-03T12:15:20.725Z,13304.00
2018-05-03T12:16:41.275Z,64704.00
2018-05-03T12:20:21.533Z,75136.00
2018-05-03T12:21:20.889Z,72864.00
2018-05-03T12:22:43.539Z,17156.00
2018-05-03T12:23:24.524Z,12644.00
2018-05-03T12:24:22.067Z,13132.00
2018-05-03T12:25:23.975Z,13312.00
2018-05-03T12:26:22.059Z,21248.00
2018-05-03T12:27:24.550Z,91840.00
2018-05-03T12:28:43.543Z,88864.00
2018-05-03T12:29:28.595Z,82528.00
2018-05-03T12:30:22.544Z,78336.00
2018-05-03T12:31:23.045Z,22272.00
2018-05-03T12:32:23.047Z,82464.00
2018-05-03T12:33:23.127Z,84064.00
2018-05-03T12:34:22.487Z,88384.00
2018-05-03T12:37:15.035Z,13700.00
2018-05-03T12:37:54.771Z,11984.00
2018-05-03T12:38:55.274Z,11460.00
2018-05-03T12:39:57.270Z,10372.00
2018-05-03T12:40:55.271Z,9024.00
2018-05-03T12:41:55.270Z,8228.00
2018-05-03T12:42:54.742Z,9992.00
2018-05-03T12:43:58.251Z,12016.00
2018-05-03T12:46:27.170Z,13284.00
2018-05-03T12:47:27.183Z,35776.00
2018-05-03T12:48:30.144Z,24288.00
2018-05-03T12:49:27.683Z,37696.00
2018-05-03T12:50:27.689Z,87776.00
2018-05-03T12:51:27.678Z,91456.00
2018-05-03T12:52:27.683Z,93888.00
2018-05-03T12:56:51.920Z,85120.00
2018-05-03T12:57:51.933Z,94400.00
2018-05-03T12:58:51.402Z,89312.00
2018-05-03T12:59:53.890Z,72672.00
2018-05-03T13:00:33.428Z,74368.00
2018-05-03T13:01:30.798Z,75392.00
2018-05-03T13:02:31.428Z,77056.00
2018-05-03T13:03:45.928Z,82208.00
2018-05-03T13:06:24.340Z,85184.00
2018-05-03T13:07:03.347Z,90560.00
2018-05-03T13:08:09.854Z,83200.00
2018-05-03T13:09:03.892Z,75712.00
2018-05-03T13:10:17.845Z,38208.00
2018-05-03T13:11:05.278Z,70528.00
2018-05-03T13:12:03.328Z,30368.00
2018-05-03T13:13:24.455Z,23776.00
2018-05-03T13:14:26.312Z,16096.00
2018-05-03T13:15:03.666Z,13940.00
2018-05-03T13:16:24.767Z,13704.00
2018-05-03T13:17:24.879Z,20128.00
2018-05-03T13:18:25.017Z,13828.00
2018-05-03T13:19:26.842Z,11736.00
2018-05-03T13:20:04.227Z,11812.00
2018-05-03T13:21:04.847Z,13576.00
2018-05-03T13:22:26.350Z,19424.00
2018-05-03T13:23:11.346Z,15468.00
2018-05-03T13:24:05.346Z,16800.00
2018-05-03T13:25:05.347Z,28640.00
2018-05-03T13:27:36.409Z,13472.00
2018-05-03T13:28:37.133Z,10980.00
2018-05-03T13:29:36.651Z,9836.00
2018-05-03T13:32:08.964Z,9308.00
2018-05-03T13:33:08.945Z,9428.00
2018-05-03T13:34:10.907Z,9064.00
2018-05-03T13:35:09.438Z,8504.00
2018-05-03T13:36:10.375Z,8432.00
2018-05-03T13:37:29.777Z,8720.00
2018-05-03T13:38:08.950Z,19584.00
2018-05-03T13:39:30.940Z,13100.00
2018-05-03T13:40:09.061Z,9140.00
2018-05-03T13:41:09.952Z,9788.00
2018-05-03T13:42:09.940Z,19360.00
2018-05-03T13:43:09.943Z,13244.00
2018-05-03T13:44:09.543Z,9520.00
2018-05-03T13:45:16.440Z,7620.00
2018-05-03T13:46:10.442Z,6208.00
2018-05-03T13:47:31.022Z,5656.00
2018-05-03T13:48:10.030Z,7220.00
2018-05-03T13:49:16.952Z,11628.00
2018-05-03T13:50:10.943Z,17632.00
2018-05-03T13:51:10.945Z,12944.00
2018-05-03T13:52:11.439Z,13372.00
2018-05-03T13:53:10.690Z,9616.00
2018-05-03T13:54:10.801Z,11496.00
2018-05-03T13:55:11.441Z,72064.00
2018-05-03T13:57:43.214Z,45536.00
2018-05-03T13:58:43.228Z,70784.00
2018-05-03T13:59:43.232Z,71936.00
2018-05-03T14:00:47.204Z,77920.00
2018-05-03T14:01:43.720Z,80832.00
2018-05-03T14:02:43.649Z,55552.00
2018-05-03T14:04:10.715Z,15264.00
2018-05-03T14:04:50.229Z,20800.00
2018-05-03T14:05:43.451Z,79584.00
2018-05-03T14:07:05.307Z,80032.00
2018-05-03T14:10:16.026Z,61472.00
2018-05-03T14:11:16.039Z,23648.00
2018-05-03T14:12:16.030Z,13440.00
2018-05-03T14:15:08.815Z,27264.00
2018-05-03T14:15:47.198Z,11572.00
2018-05-03T14:17:11.829Z,9900.00
2018-05-03T14:17:47.422Z,8800.00
2018-05-03T14:18:50.329Z,8148.00
2018-05-03T14:19:48.329Z,7640.00
2018-05-03T14:20:48.326Z,7348.00
2018-05-03T14:22:02.823Z,7060.00
2018-05-03T14:22:48.824Z,6804.00
2018-05-03T14:23:48.827Z,6752.00
2018-05-03T14:24:48.824Z,6984.00
2018-05-03T14:26:10.323Z,7316.00
2018-05-03T14:26:49.325Z,7784.00
2018-05-03T14:28:11.796Z,8444.00
2018-05-03T14:28:49.323Z,11688.00
2018-05-03T14:29:51.829Z,37536.00
2018-05-03T14:30:51.756Z,54304.00
2018-05-03T14:31:52.756Z,16540.00
2018-05-03T14:32:49.820Z,33376.00
2018-05-03T14:34:10.493Z,65280.00
2018-05-03T14:34:56.324Z,27072.00
2018-05-03T14:35:50.331Z,13276.00
2018-05-03T14:36:50.325Z,10036.00
2018-05-03T14:38:10.916Z,17344.00
2018-05-03T14:38:50.824Z,34784.00
2018-05-03T14:39:50.203Z,22368.00
2018-05-03T14:40:50.824Z,18720.00
2018-05-03T14:42:12.336Z,72096.00
2018-05-03T14:43:12.324Z,68096.00
2018-05-03T14:44:18.324Z,68864.00
2018-05-03T14:45:12.335Z,67872.00
2018-05-03T14:45:52.793Z,18272.00
2018-05-03T14:48:23.201Z,32064.00
2018-05-03T14:49:22.674Z,67392.00
2018-05-03T14:50:23.708Z,29056.00
2018-05-03T14:52:55.114Z,67808.00
2018-05-03T14:53:56.553Z,67040.00
2018-05-03T14:55:16.670Z,60928.00
2018-05-03T14:57:28.914Z,57792.00
2018-05-03T14:58:28.406Z,50752.00
2018-05-03T14:59:26.930Z,51616.00
2018-05-03T15:02:22.204Z,47360.00
2018-05-03T15:02:59.214Z,39360.00
2018-05-03T15:07:23.452Z,7376.00
2018-05-03T15:08:23.459Z,6104.00
2018-05-03T15:09:01.948Z,5180.00
2018-05-03T15:10:23.960Z,4168.00
2018-05-03T15:11:23.959Z,3928.00
2018-05-03T15:12:04.450Z,3600.00
2018-05-03T15:13:02.971Z,3456.00
2018-05-03T15:14:17.459Z,3672.00